Time;durP1;ratioP1;P1;durP2;ratioP2;P2;SDS_P1;SDS_P2;PMS_P1;PMS_P2;Temp;Humidity;BMP_temperature;BMP_pressure;BME280_temperature;BME280_humidity;BME280_pressure;Samples;Min_cycle;Max_cycle;Signal;HPM_P1;HPM_P2
2021/05/02 00:01:34;;;;;;;1.58;1.33;;;;;;;;;;4940085;29;20022;-55
2021/05/02 00:04:01;;;;;;;1.75;1.25;;;;;;;;;;4941073;29;20036;-56
2021/05/02 00:06:26;;;;;;;2.72;1.45;;;;;;;;;;4944754;29;20480;-56
2021/05/02 00:08:52;;;;;;;2.75;1.88;;;;;;;;;;4942263;29;20082;-53
2021/05/02 00:11:17;;;;;;;2.03;1.20;;;;;;;;;;4942489;29;20373;-54
2021/05/02 00:13:42;;;;;;;3.45;1.90;;;;;;;;;;4939318;29;20599;-53
2021/05/02 00:16:08;;;;;;;2.38;1.33;;;;;;;;;;4940325;29;20445;-56
2021/05/02 00:18:34;;;;;;;2.83;1.77;;;;;;;;;;4940736;29;20473;-55
2021/05/02 00:21:00;;;;;;;2.40;1.35;;;;;;;;;;4937289;29;20039;-53
2021/05/02 00:23:25;;;;;;;2.67;1.85;;;;;;;;;;4938210;29;20046;-56
2021/05/02 00:25:51;;;;;;;2.10;0.98;;;;;;;;;;4940194;29;20035;-52
2021/05/02 00:28:17;;;;;;;5.78;1.88;;;;;;;;;;4938232;29;20027;-56
2021/05/02 00:30:42;;;;;;;1.77;1.42;;;;;;;;;;4942779;29;20034;-55
2021/05/02 00:33:08;;;;;;;2.08;1.50;;;;;;;;;;4936765;29;20035;-56
2021/05/02 00:35:34;;;;;;;3.50;1.30;;;;;;;;;;4942249;29;20110;-53
2021/05/02 00:37:59;;;;;;;3.30;2.00;;;;;;;;;;4939064;29;20031;-56
2021/05/02 00:40:34;;;;;;;3.55;1.85;;;;;;;;;;4940196;29;20095;-55
2021/05/02 00:43:02;;;;;;;1.80;1.10;;;;;;;;;;4939417;29;20102;-54
2021/05/02 00:45:31;;;;;;;5.38;1.25;;;;;;;;;;4942604;29;20110;-54
2021/05/02 00:48:09;;;;;;;2.10;1.33;;;;;;;;;;4938797;29;20099;-53
2021/05/02 00:50:39;;;;;;;2.53;1.73;;;;;;;;;;4941021;29;20070;-52
2021/05/02 00:53:13;;;;;;;4.13;1.40;;;;;;;;;;4929122;29;20651;-53
2021/05/02 00:55:41;;;;;;;3.85;1.98;;;;;;;;;;4940312;29;20165;-55
2021/05/02 00:58:09;;;;;;;3.15;1.23;;;;;;;;;;4936498;29;20023;-56
2021/05/02 01:00:37;;;;;;;2.03;1.48;;;;;;;;;;4941589;29;20046;-54
2021/05/02 01:03:03;;;;;;;2.78;1.50;;;;;;;;;;4939140;29;20576;-55
2021/05/02 01:05:30;;;;;;;8.32;2.55;;;;;;;;;;4941140;29;20051;-51
2021/05/02 01:07:56;;;;;;;3.58;1.67;;;;;;;;;;4926159;29;20039;-53
2021/05/02 01:10:21;;;;;;;1.25;0.75;;;;;;;;;;4946154;29;20035;-52
2021/05/02 01:12:48;;;;;;;0.90;0.77;;;;;;;;;;4943527;29;20030;-54
2021/05/02 01:15:14;;;;;;;7.82;1.48;;;;;;;;;;4941517;29;20040;-53
2021/05/02 01:17:45;;;;;;;3.22;1.70;;;;;;;;;;4942361;29;20035;-53
2021/05/02 01:20:13;;;;;;;11.05;2.78;;;;;;;;;;4938288;29;20061;-50
2021/05/02 01:22:40;;;;;;;1.30;1.05;;;;;;;;;;4940085;29;20023;-55
2021/05/02 01:25:06;;;;;;;6.43;2.17;;;;;;;;;;4942486;29;20032;-52
2021/05/02 01:27:31;;;;;;;2.38;1.40;;;;;;;;;;4942491;29;20121;-52
2021/05/02 01:29:58;;;;;;;2.22;0.95;;;;;;;;;;4943639;29;20032;-52
2021/05/02 01:32:24;;;;;;;2.75;1.52;;;;;;;;;;4942203;29;20026;-53
2021/05/02 01:34:50;;;;;;;1.38;0.75;;;;;;;;;;4944459;29;20043;-54
2021/05/02 01:37:15;;;;;;;4.25;1.58;;;;;;;;;;4942834;29;20033;-54
2021/05/02 01:39:41;;;;;;;8.52;1.42;;;;;;;;;;4939907;29;20035;-53
2021/05/02 01:42:06;;;;;;;2.47;1.88;;;;;;;;;;4943925;29;20016;-52
2021/05/02 01:44:32;;;;;;;2.03;1.80;;;;;;;;;;4942846;29;20034;-53
2021/05/02 01:46:59;;;;;;;2.83;1.58;;;;;;;;;;4946053;29;20106;-55
2021/05/02 01:49:25;;;;;;;1.95;0.98;;;;;;;;;;4944551;29;20036;-54
2021/05/02 01:51:51;;;;;;;1.90;1.42;;;;;;;;;;4941564;29;20107;-54
2021/05/02 01:54:16;;;;;;;5.13;1.38;;;;;;;;;;4941461;29;20039;-52
2021/05/02 01:56:42;;;;;;;3.58;2.63;;;;;;;;;;4942880;29;20074;-54
2021/05/02 01:59:08;;;;;;;2.47;1.20;;;;;;;;;;4945158;29;20365;-54
2021/05/02 02:01:34;;;;;;;1.73;1.00;;;;;;;;;;4940687;29;20151;-54
2021/05/02 02:04:01;;;;;;;3.40;2.25;;;;;;;;;;4941250;29;20697;-54
2021/05/02 02:06:27;;;;;;;1.80;1.10;;;;;;;;;;4939226;29;20118;-55
2021/05/02 02:08:52;;;;;;;3.95;1.85;;;;;;;;;;4945698;29;20134;-53
2021/05/02 02:11:19;;;;;;;2.58;1.35;;;;;;;;;;4944014;29;20496;-54
2021/05/02 02:13:46;;;;;;;3.90;1.30;;;;;;;;;;4938989;29;20035;-53
2021/05/02 02:16:11;;;;;;;1.80;1.27;;;;;;;;;;4939927;29;20060;-55
2021/05/02 02:18:36;;;;;;;1.55;1.15;;;;;;;;;;4937153;29;20051;-53
2021/05/02 02:21:02;;;;;;;4.03;1.60;;;;;;;;;;4936085;29;20138;-50
2021/05/02 02:23:27;;;;;;;2.63;1.27;;;;;;;;;;4939354;29;20027;-51
2021/05/02 02:25:53;;;;;;;1.25;1.15;;;;;;;;;;4942523;29;20520;-50
2021/05/02 02:28:19;;;;;;;2.53;1.85;;;;;;;;;;4944570;29;20028;-51
2021/05/02 02:30:46;;;;;;;1.25;0.95;;;;;;;;;;4941603;29;20035;-53
2021/05/02 02:33:12;;;;;;;2.47;1.40;;;;;;;;;;4941151;29;20027;-52
2021/05/02 02:35:57;;;;;;;3.20;1.70;;;;;;;;;;4939582;29;20488;-54
2021/05/02 02:38:24;;;;;;;2.13;1.30;;;;;;;;;;4940453;29;20036;-53
2021/05/02 02:40:50;;;;;;;6.80;1.05;;;;;;;;;;4942048;29;20035;-53
2021/05/02 02:43:23;;;;;;;2.00;1.45;;;;;;;;;;4942926;29;20019;-52
2021/05/02 02:45:51;;;;;;;4.53;1.77;;;;;;;;;;4935813;29;20039;-54
2021/05/02 02:48:20;;;;;;;2.53;1.63;;;;;;;;;;4942717;29;20023;-53
2021/05/02 02:50:48;;;;;;;2.35;1.95;;;;;;;;;;4943002;29;20027;-52
2021/05/02 02:53:14;;;;;;;1.52;0.77;;;;;;;;;;4939617;29;20047;-54
2021/05/02 02:55:41;;;;;;;1.55;1.23;;;;;;;;;;4941028;29;20035;-54
2021/05/02 02:58:09;;;;;;;0.73;0.50;;;;;;;;;;4942058;29;20035;-50
2021/05/02 03:00:35;;;;;;;2.42;1.15;;;;;;;;;;4942963;29;20053;-51
2021/05/02 03:03:02;;;;;;;3.17;0.90;;;;;;;;;;4938399;29;20034;-53
2021/05/02 03:05:28;;;;;;;2.35;1.60;;;;;;;;;;4939809;29;20023;-54
2021/05/02 03:07:53;;;;;;;1.98;0.98;;;;;;;;;;4941561;29;20102;-55
2021/05/02 03:10:19;;;;;;;3.58;1.33;;;;;;;;;;4941118;29;20094;-53
2021/05/02 03:12:47;;;;;;;1.45;0.98;;;;;;;;;;4940142;29;20028;-53
2021/05/02 03:15:12;;;;;;;2.88;1.95;;;;;;;;;;4939309;29;20492;-53
2021/05/02 03:17:40;;;;;;;2.70;1.50;;;;;;;;;;4942459;29;20038;-53
2021/05/02 03:20:07;;;;;;;6.07;1.60;;;;;;;;;;4938230;29;20696;-52
2021/05/02 03:22:43;;;;;;;4.28;2.05;;;;;;;;;;4940729;29;20067;-51
2021/05/02 03:25:12;;;;;;;2.72;1.98;;;;;;;;;;4940532;29;20721;-52
2021/05/02 03:27:44;;;;;;;8.00;1.90;;;;;;;;;;4936830;29;20102;-52
2021/05/02 03:30:09;;;;;;;2.95;1.63;;;;;;;;;;4943378;29;20061;-53
2021/05/02 03:32:36;;;;;;;10.75;1.90;;;;;;;;;;4940373;29;20581;-54
2021/05/02 03:35:06;;;;;;;2.55;1.48;;;;;;;;;;4940764;29;20130;-51
2021/05/02 03:37:32;;;;;;;1.45;1.08;;;;;;;;;;4938715;29;20729;-52
2021/05/02 03:39:58;;;;;;;1.25;0.80;;;;;;;;;;4941184;29;20066;-54
2021/05/02 03:42:23;;;;;;;1.25;0.75;;;;;;;;;;4939980;29;20051;-54
2021/05/02 03:44:48;;;;;;;5.22;2.22;;;;;;;;;;4937169;29;20024;-53
2021/05/02 03:47:14;;;;;;;9.88;1.65;;;;;;;;;;4941614;29;20038;-53
2021/05/02 03:49:39;;;;;;;2.20;1.10;;;;;;;;;;4939610;29;20202;-51
2021/05/02 03:52:05;;;;;;;2.40;1.25;;;;;;;;;;4941295;29;20019;-49
2021/05/02 03:54:30;;;;;;;2.33;1.35;;;;;;;;;;4938675;29;20044;-53
2021/05/02 03:56:56;;;;;;;1.45;1.35;;;;;;;;;;4938443;29;20735;-53
2021/05/02 03:59:21;;;;;;;10.00;2.35;;;;;;;;;;4943014;29;20061;-50
2021/05/02 04:01:52;;;;;;;4.72;1.23;;;;;;;;;;4940066;29;20020;-52
2021/05/02 04:04:19;;;;;;;4.82;1.27;;;;;;;;;;4939540;29;20027;-51
2021/05/02 04:06:45;;;;;;;2.08;1.15;;;;;;;;;;4939812;29;20066;-49
2021/05/02 04:09:11;;;;;;;3.17;1.95;;;;;;;;;;4937783;29;20087;-48
2021/05/02 04:11:37;;;;;;;4.93;2.13;;;;;;;;;;4920681;29;20110;-51
2021/05/02 04:14:03;;;;;;;4.22;2.22;;;;;;;;;;4941390;29;20564;-51
2021/05/02 04:16:28;;;;;;;7.63;1.25;;;;;;;;;;4939491;29;20031;-52
2021/05/02 04:18:54;;;;;;;3.42;2.45;;;;;;;;;;4939767;29;20039;-53
2021/05/02 04:21:20;;;;;;;1.52;1.13;;;;;;;;;;4940868;29;20186;-56
2021/05/02 04:23:45;;;;;;;4.97;1.67;;;;;;;;;;4939011;29;20023;-51
2021/05/02 04:26:10;;;;;;;2.08;1.40;;;;;;;;;;4931057;29;20027;-52
2021/05/02 04:28:36;;;;;;;3.28;1.25;;;;;;;;;;4940485;29;20035;-52
2021/05/02 04:31:01;;;;;;;4.22;1.88;;;;;;;;;;4940869;29;20027;-51
2021/05/02 04:33:26;;;;;;;3.30;2.22;;;;;;;;;;4939729;29;20030;-51
2021/05/02 04:35:52;;;;;;;4.05;1.73;;;;;;;;;;4940260;29;20161;-52
2021/05/02 04:38:17;;;;;;;2.63;1.38;;;;;;;;;;4941462;29;20503;-51
2021/05/02 04:40:42;;;;;;;4.13;1.67;;;;;;;;;;4940729;29;20040;-52
2021/05/02 04:43:11;;;;;;;2.55;1.83;;;;;;;;;;4942236;29;20807;-52
2021/05/02 04:45:37;;;;;;;2.10;1.33;;;;;;;;;;4945177;29;20556;-53
2021/05/02 04:48:03;;;;;;;1.58;0.93;;;;;;;;;;4941326;29;20060;-53
2021/05/02 04:50:28;;;;;;;1.35;0.75;;;;;;;;;;4941909;29;20496;-50
2021/05/02 04:52:53;;;;;;;2.33;1.40;;;;;;;;;;4938796;29;20110;-51
2021/05/02 04:55:19;;;;;;;5.75;1.63;;;;;;;;;;4940588;29;20495;-49
2021/05/02 04:57:44;;;;;;;22.75;2.75;;;;;;;;;;4942287;29;20027;-54
2021/05/02 05:00:09;;;;;;;12.02;1.70;;;;;;;;;;4947535;29;20049;-53
2021/05/02 05:02:35;;;;;;;2.70;1.73;;;;;;;;;;4944122;29;20288;-55
2021/05/02 05:05:00;;;;;;;3.45;1.60;;;;;;;;;;4944178;29;20043;-56
2021/05/02 05:07:26;;;;;;;3.33;1.55;;;;;;;;;;4943442;29;20523;-58
2021/05/02 05:09:51;;;;;;;2.30;1.88;;;;;;;;;;4943124;28;20504;-58
2021/05/02 05:12:16;;;;;;;2.72;1.75;;;;;;;;;;4944074;29;20082;-58
2021/05/02 05:14:42;;;;;;;2.65;1.60;;;;;;;;;;4943659;29;20031;-58
2021/05/02 05:17:07;;;;;;;7.35;1.75;;;;;;;;;;4948539;29;20047;-58
2021/05/02 05:19:32;;;;;;;4.78;1.15;;;;;;;;;;4946095;29;20075;-58
2021/05/02 05:21:58;;;;;;;3.00;1.73;;;;;;;;;;4931535;29;20022;-58
2021/05/02 05:24:23;;;;;;;3.35;2.08;;;;;;;;;;4946578;29;20031;-58
2021/05/02 05:26:48;;;;;;;3.90;1.77;;;;;;;;;;4944397;29;20487;-57
2021/05/02 05:29:14;;;;;;;4.07;1.75;;;;;;;;;;4948473;29;20123;-57
2021/05/02 05:31:39;;;;;;;4.05;2.58;;;;;;;;;;4945972;29;20098;-57
2021/05/02 05:34:04;;;;;;;5.53;2.75;;;;;;;;;;4943900;28;20455;-57
2021/05/02 05:36:29;;;;;;;2.58;2.35;;;;;;;;;;4944622;29;20118;-58
2021/05/02 05:38:55;;;;;;;3.55;2.38;;;;;;;;;;4943492;29;20035;-58
2021/05/02 05:41:20;;;;;;;2.72;2.42;;;;;;;;;;4943569;29;20436;-58
2021/05/02 05:43:45;;;;;;;5.32;2.75;;;;;;;;;;4948181;29;20067;-58
2021/05/02 05:46:13;;;;;;;3.85;3.42;;;;;;;;;;4944237;29;20054;-57
2021/05/02 05:48:39;;;;;;;3.15;2.00;;;;;;;;;;4942881;29;20051;-57
2021/05/02 05:51:05;;;;;;;4.47;2.13;;;;;;;;;;4944399;29;20385;-57
2021/05/02 05:53:30;;;;;;;3.10;2.17;;;;;;;;;;4946357;29;20262;-57
2021/05/02 05:55:57;;;;;;;3.17;1.75;;;;;;;;;;4947068;29;20508;-57
2021/05/02 05:58:23;;;;;;;3.63;2.35;;;;;;;;;;4942127;29;20484;-56
2021/05/02 06:00:49;;;;;;;3.60;2.53;;;;;;;;;;4945450;29;20032;-58
2021/05/02 06:03:14;;;;;;;2.47;2.03;;;;;;;;;;4948433;29;20083;-58
2021/05/02 06:05:39;;;;;;;3.47;1.75;;;;;;;;;;4944291;29;20062;-57
2021/05/02 06:08:05;;;;;;;3.97;2.58;;;;;;;;;;4945291;29;20047;-57
2021/05/02 06:10:30;;;;;;;2.92;1.63;;;;;;;;;;4943205;29;20127;-57
2021/05/02 06:12:55;;;;;;;4.53;2.03;;;;;;;;;;4944965;29;20028;-57
2021/05/02 06:15:21;;;;;;;3.90;2.17;;;;;;;;;;4944505;29;20081;-57
2021/05/02 06:17:46;;;;;;;3.58;2.47;;;;;;;;;;4944296;28;20404;-57
2021/05/02 06:20:11;;;;;;;3.15;1.67;;;;;;;;;;4952226;28;20385;-57
2021/05/02 06:22:37;;;;;;;1.95;1.30;;;;;;;;;;4946877;28;20015;-57
2021/05/02 06:25:02;;;;;;;6.13;5.53;;;;;;;;;;4945502;28;20035;-58
2021/05/02 06:27:28;;;;;;;7.35;6.22;;;;;;;;;;4946726;28;20027;-57
2021/05/02 06:29:53;;;;;;;7.70;6.43;;;;;;;;;;4947790;28;20028;-59
2021/05/02 06:32:18;;;;;;;7.43;6.63;;;;;;;;;;4945012;28;20023;-57
2021/05/02 06:34:44;;;;;;;7.93;4.95;;;;;;;;;;4948140;28;20091;-58
2021/05/02 06:37:09;;;;;;;4.55;3.20;;;;;;;;;;4945142;28;20063;-58
2021/05/02 06:39:34;;;;;;;6.38;2.17;;;;;;;;;;4943931;28;20051;-57
2021/05/02 06:41:59;;;;;;;5.25;1.40;;;;;;;;;;4943797;28;20034;-58
2021/05/02 06:44:25;;;;;;;4.20;2.13;;;;;;;;;;4947228;28;20389;-57
2021/05/02 06:46:53;;;;;;;4.90;2.85;;;;;;;;;;4942942;28;20367;-58
2021/05/02 06:49:18;;;;;;;9.57;3.15;;;;;;;;;;4947845;28;20089;-59
2021/05/02 06:51:44;;;;;;;4.32;2.05;;;;;;;;;;4946031;28;20575;-58
2021/05/02 06:54:10;;;;;;;2.28;1.52;;;;;;;;;;4951461;28;20121;-57
2021/05/02 06:56:35;;;;;;;4.10;1.63;;;;;;;;;;4944836;28;20016;-59
2021/05/02 06:59:01;;;;;;;4.80;2.63;;;;;;;;;;4943621;28;20499;-60
2021/05/02 07:01:27;;;;;;;5.07;2.83;;;;;;;;;;4942997;28;20065;-58
2021/05/02 07:03:52;;;;;;;7.93;2.40;;;;;;;;;;4947305;28;20026;-58
2021/05/02 07:06:18;;;;;;;2.85;1.50;;;;;;;;;;4945947;28;20019;-58
2021/05/02 07:08:43;;;;;;;2.95;2.25;;;;;;;;;;4946038;28;20412;-58
2021/05/02 07:11:08;;;;;;;4.13;1.50;;;;;;;;;;4947664;28;20031;-58
2021/05/02 07:13:34;;;;;;;6.72;2.38;;;;;;;;;;4930016;28;20380;-58
2021/05/02 07:16:00;;;;;;;7.97;2.20;;;;;;;;;;4950393;28;20034;-59
2021/05/02 07:18:29;;;;;;;2.63;1.63;;;;;;;;;;4946402;28;20094;-58
2021/05/02 07:20:55;;;;;;;1.90;1.60;;;;;;;;;;4944702;28;20047;-58
2021/05/02 07:23:20;;;;;;;2.17;1.50;;;;;;;;;;4940362;29;20035;-59
2021/05/02 07:25:45;;;;;;;4.18;1.95;;;;;;;;;;4938901;29;20090;-59
2021/05/02 07:28:11;;;;;;;10.55;2.97;;;;;;;;;;4939956;29;20529;-58
2021/05/02 07:30:36;;;;;;;3.53;1.38;;;;;;;;;;4937466;29;20035;-59
2021/05/02 07:33:01;;;;;;;7.20;2.17;;;;;;;;;;4939819;29;20451;-59
2021/05/02 07:35:27;;;;;;;6.57;2.75;;;;;;;;;;4940079;29;20369;-58
2021/05/02 07:37:52;;;;;;;18.33;3.13;;;;;;;;;;4938020;29;20481;-58
2021/05/02 07:40:18;;;;;;;5.72;2.45;;;;;;;;;;4938545;29;20067;-59
2021/05/02 07:42:43;;;;;;;7.82;2.83;;;;;;;;;;4944216;29;20031;-62
2021/05/02 07:45:08;;;;;;;7.47;3.05;;;;;;;;;;4942546;29;20483;-58
2021/05/02 07:47:35;;;;;;;7.28;3.60;;;;;;;;;;4939101;29;20079;-58
2021/05/02 07:50:01;;;;;;;10.85;3.45;;;;;;;;;;4938041;29;20039;-59
2021/05/02 07:52:26;;;;;;;3.25;2.22;;;;;;;;;;4941145;29;20083;-59
2021/05/02 07:54:51;;;;;;;5.10;1.48;;;;;;;;;;4928031;29;20491;-59
2021/05/02 07:57:17;;;;;;;4.28;2.03;;;;;;;;;;4938265;29;20094;-59
2021/05/02 07:59:42;;;;;;;10.38;3.25;;;;;;;;;;4934959;29;20113;-59
2021/05/02 08:02:08;;;;;;;3.88;2.67;;;;;;;;;;4934482;29;20024;-59
2021/05/02 08:04:39;;;;;;;9.45;3.22;;;;;;;;;;4937835;29;20036;-59
2021/05/02 08:07:05;;;;;;;17.48;3.45;;;;;;;;;;4938425;29;20038;-59
2021/05/02 08:09:31;;;;;;;11.07;3.03;;;;;;;;;;4939519;29;20488;-59
2021/05/02 08:11:56;;;;;;;7.85;2.13;;;;;;;;;;4940250;28;20027;-59
2021/05/02 08:14:21;;;;;;;7.90;2.80;;;;;;;;;;4942468;29;20035;-59
2021/05/02 08:16:47;;;;;;;4.95;2.05;;;;;;;;;;4942703;29;20055;-58
2021/05/02 08:19:12;;;;;;;3.53;1.60;;;;;;;;;;4942922;29;20429;-59
2021/05/02 08:21:38;;;;;;;8.70;2.85;;;;;;;;;;4942055;29;20027;-59
2021/05/02 08:24:04;;;;;;;8.00;3.28;;;;;;;;;;4944947;29;20028;-58
2021/05/02 08:26:29;;;;;;;7.25;1.90;;;;;;;;;;4942889;29;20020;-59
2021/05/02 08:28:54;;;;;;;8.10;3.95;;;;;;;;;;4941527;29;20063;-60
2021/05/02 08:31:19;;;;;;;9.23;3.08;;;;;;;;;;4944583;29;20311;-59
2021/05/02 08:33:45;;;;;;;20.48;5.40;;;;;;;;;;4942851;29;20424;-59
2021/05/02 08:36:10;;;;;;;6.57;2.13;;;;;;;;;;4943054;29;20038;-59
2021/05/02 08:38:36;;;;;;;7.20;1.88;;;;;;;;;;4943270;28;20023;-59
2021/05/02 08:41:02;;;;;;;10.38;3.35;;;;;;;;;;4943872;29;20027;-60
2021/05/02 08:43:28;;;;;;;5.35;2.97;;;;;;;;;;4947715;29;20023;-60
2021/05/02 08:45:54;;;;;;;6.18;1.77;;;;;;;;;;4944780;29;20121;-59
2021/05/02 08:48:20;;;;;;;12.10;2.33;;;;;;;;;;4948409;29;20437;-60
2021/05/02 08:50:46;;;;;;;7.32;2.15;;;;;;;;;;4946497;29;20015;-59
2021/05/02 08:53:11;;;;;;;11.15;2.05;;;;;;;;;;4944745;29;20043;-60
2021/05/02 08:55:37;;;;;;;10.77;2.35;;;;;;;;;;4947460;29;20027;-59
2021/05/02 08:58:03;;;;;;;13.02;2.60;;;;;;;;;;4945466;29;20500;-61
2021/05/02 09:00:28;;;;;;;3.30;2.15;;;;;;;;;;4942817;29;20523;-62
2021/05/02 09:02:54;;;;;;;4.57;2.03;;;;;;;;;;4942605;29;20031;-62
2021/05/02 09:05:23;;;;;;;5.43;1.85;;;;;;;;;;4941307;29;20032;-62
2021/05/02 09:07:48;;;;;;;4.72;1.48;;;;;;;;;;4944977;28;20051;-58
2021/05/02 09:10:17;;;;;;;9.77;2.78;;;;;;;;;;4946185;29;20090;-60
2021/05/02 09:12:56;;;;;;;14.02;1.83;;;;;;;;;;4945636;29;20024;-60
2021/05/02 09:15:21;;;;;;;18.63;2.45;;;;;;;;;;4942615;29;20031;-51
2021/05/02 09:17:58;;;;;;;3.75;2.50;;;;;;;;;;4942016;29;20551;-62
2021/05/02 09:20:40;;;;;;;7.35;2.08;;;;;;;;;;4941695;29;20123;-60
2021/05/02 09:23:05;;;;;;;8.40;3.25;;;;;;;;;;4944158;29;20027;-35
2021/05/02 09:25:43;;;;;;;3.63;1.92;;;;;;;;;;4940887;29;20041;-36
2021/05/02 09:28:08;;;;;;;11.60;4.88;;;;;;;;;;4943267;29;20023;-44
2021/05/02 09:30:34;;;;;;;9.45;2.13;;;;;;;;;;4942638;29;20028;-44
2021/05/02 09:32:59;;;;;;;14.32;3.45;;;;;;;;;;4941616;29;20031;-45
2021/05/02 09:35:25;;;;;;;7.90;3.78;;;;;;;;;;4944174;29;20027;-43
2021/05/02 09:37:52;;;;;;;6.18;2.33;;;;;;;;;;4940986;29;20027;-39
2021/05/02 09:40:18;;;;;;;2.95;1.92;;;;;;;;;;4926207;29;20063;-39
2021/05/02 09:42:48;;;;;;;9.95;3.00;;;;;;;;;;4941670;29;20058;-45
2021/05/02 09:45:13;;;;;;;2.83;1.85;;;;;;;;;;4940197;29;20032;-42
2021/05/02 09:47:41;;;;;;;3.88;1.88;;;;;;;;;;4940271;29;20755;-46
2021/05/02 09:50:13;;;;;;;5.95;2.00;;;;;;;;;;4939236;29;20035;-43
2021/05/02 09:52:39;;;;;;;5.47;3.63;;;;;;;;;;4941222;29;20120;-42
2021/05/02 09:55:20;;;;;;;10.85;4.82;;;;;;;;;;4942422;29;20031;-46
2021/05/02 09:57:51;;;;;;;6.18;2.22;;;;;;;;;;4942194;29;20119;-45
2021/05/02 10:00:16;;;;;;;;;;;;;;;;;;4942618;29;20039;-42
2021/05/02 10:02:41;;;;;;;4.28;2.58;;;;;;;;;;4945146;29;20268;-45
2021/05/02 10:05:08;;;;;;;8.30;4.25;;;;;;;;;;4943192;29;20019;-43
2021/05/02 10:07:34;;;;;;;7.72;2.50;;;;;;;;;;4942619;29;20027;-42
2021/05/02 10:10:01;;;;;;;10.52;4.38;;;;;;;;;;4941470;29;20092;-43
2021/05/02 10:12:27;;;;;;;7.25;2.05;;;;;;;;;;4938670;29;20031;-45
2021/05/02 10:14:52;;;;;;;6.30;3.03;;;;;;;;;;4942577;29;20334;-43
2021/05/02 10:34:27;;;;;;;10.32;2.55;;;;;;;;;;5055891;28;20365;-43
2021/05/02 10:36:53;;;;;;;;;;;;;;;;;;5057984;28;20045;-45
2021/05/02 10:39:18;;;;;;;29.25;3.22;;;;;;;;;;5051415;28;19935;-45
2021/05/02 10:41:46;;;;;;;5.22;2.65;;;;;;;;;;5052953;28;20441;-47
2021/05/02 10:44:12;;;;;;;10.13;3.97;;;;;;;;;;5053226;28;20127;-45
2021/05/02 10:46:43;;;;;;;10.52;2.33;;;;;;;;;;5049138;28;20431;-42
2021/05/02 10:49:10;;;;;;;4.28;2.72;;;;;;;;;;5055180;28;20079;-42
2021/05/02 10:51:35;;;;;;;21.90;3.72;;;;;;;;;;5051777;28;20020;-45
2021/05/02 10:54:03;;;;;;;17.23;4.53;;;;;;;;;;5053313;28;20160;-48
2021/05/02 10:56:47;;;;;;;6.78;3.00;;;;;;;;;;5052955;28;20058;-48
2021/05/02 10:59:13;;;;;;;7.00;2.67;;;;;;;;;;5035832;28;20339;-48
2021/05/02 11:01:38;;;;;;;16.55;3.97;;;;;;;;;;5041753;28;20096;-45
2021/05/02 11:04:04;;;;;;;12.15;3.80;;;;;;;;;;5041614;28;20021;-47
2021/05/02 11:06:39;;;;;;;6.95;2.33;;;;;;;;;;5048425;28;20021;-47
2021/05/02 11:09:04;;;;;;;3.60;2.67;;;;;;;;;;5042921;28;20021;-45
2021/05/02 11:11:29;;;;;;;26.33;6.32;;;;;;;;;;5053606;28;20267;-50
2021/05/02 11:14:10;;;;;;;5.35;2.00;;;;;;;;;;5038312;28;20022;-49
2021/05/02 11:16:38;;;;;;;14.15;3.13;;;;;;;;;;5047392;28;20055;-42
2021/05/02 11:19:05;;;;;;;4.15;1.92;;;;;;;;;;5052723;28;20064;-42
2021/05/02 11:21:48;;;;;;;14.80;2.53;;;;;;;;;;5044394;28;20021;-42
2021/05/02 11:24:14;;;;;;;6.72;2.80;;;;;;;;;;5045204;28;20440;-43
2021/05/02 11:29:35;;;;;;;5.88;3.20;;;;;;;;;;5047390;28;20029;-46
2021/05/02 11:32:04;;;;;;;25.92;5.80;;;;;;;;;;5045662;28;20060;-46
2021/05/02 11:34:48;;;;;;;8.93;2.63;;;;;;;;;;5034424;28;20026;-41
2021/05/02 11:37:33;;;;;;;13.70;3.55;;;;;;;;;;5029816;28;20025;-46
2021/05/02 11:39:58;;;;;;;5.80;2.20;;;;;;;;;;5031759;28;20029;-44
2021/05/02 11:42:24;;;;;;;32.63;12.13;;;;;;;;;;5020610;28;20052;-43
2021/05/02 11:44:52;;;;;;;6.75;3.17;;;;;;;;;;5033806;28;20029;-41
2021/05/02 11:47:19;;;;;;;19.05;4.03;;;;;;;;;;5026939;28;20512;-45
2021/05/02 11:49:44;;;;;;;9.95;3.22;;;;;;;;;;5030714;28;20038;-44
2021/05/02 11:52:10;;;;;;;12.15;2.75;;;;;;;;;;5037886;28;20041;-46
2021/05/02 11:54:43;;;;;;;13.55;3.15;;;;;;;;;;5032959;28;20030;-42
2021/05/02 11:57:09;;;;;;;13.65;2.88;;;;;;;;;;5029292;28;20057;-44
2021/05/02 11:59:47;;;;;;;8.00;3.05;;;;;;;;;;5032827;28;20061;-41
2021/05/02 12:02:13;;;;;;;16.23;3.85;;;;;;;;;;5039732;28;20079;-46
2021/05/02 12:04:39;;;;;;;4.63;3.08;;;;;;;;;;5036233;28;20044;-44
2021/05/02 12:07:05;;;;;;;19.17;4.65;;;;;;;;;;5035932;28;20059;-42
2021/05/02 12:09:31;;;;;;;11.77;3.42;;;;;;;;;;5035285;28;20071;-40
2021/05/02 12:11:58;;;;;;;9.02;2.00;;;;;;;;;;5037080;28;20117;-47
2021/05/02 12:14:24;;;;;;;5.15;3.38;;;;;;;;;;5031112;28;20021;-47
2021/05/02 12:16:52;;;;;;;9.05;2.65;;;;;;;;;;5034530;28;20035;-44
2021/05/02 12:19:18;;;;;;;11.00;3.55;;;;;;;;;;5032480;28;20094;-41
2021/05/02 12:21:46;;;;;;;7.88;2.97;;;;;;;;;;5033879;28;20472;-46
2021/05/02 12:24:11;;;;;;;7.32;1.88;;;;;;;;;;5036122;28;20033;-46
2021/05/02 12:26:44;;;;;;;4.47;2.10;;;;;;;;;;5036327;28;20032;-47
2021/05/02 12:29:14;;;;;;;12.43;2.47;;;;;;;;;;5033424;28;20048;-46
2021/05/02 12:31:40;;;;;;;5.82;1.33;;;;;;;;;;5029379;28;20049;-46
2021/05/02 12:34:06;;;;;;;10.60;3.17;;;;;;;;;;5031938;28;20084;-46
2021/05/02 12:36:31;;;;;;;5.25;2.95;;;;;;;;;;5032181;28;20104;-46
2021/05/02 12:39:05;;;;;;;3.13;1.50;;;;;;;;;;5034079;28;20092;-43
2021/05/02 12:41:30;;;;;;;6.55;1.95;;;;;;;;;;5031915;28;20465;-46
2021/05/02 12:44:09;;;;;;;8.02;2.45;;;;;;;;;;5030647;28;20083;-44
2021/05/02 12:46:36;;;;;;;5.85;2.08;;;;;;;;;;5031099;28;20032;-50
2021/05/02 12:49:08;;;;;;;4.13;2.50;;;;;;;;;;5032633;28;20025;-42
2021/05/02 12:51:33;;;;;;;12.85;2.85;;;;;;;;;;5028891;28;20075;-44
2021/05/02 12:54:04;;;;;;;7.13;1.65;;;;;;;;;;5031289;28;20022;-47
2021/05/02 12:56:30;;;;;;;6.25;2.30;;;;;;;;;;5026946;28;20490;-43
2021/05/02 12:58:56;;;;;;;2.78;2.50;;;;;;;;;;5026335;28;20053;-46
2021/05/02 13:01:21;;;;;;;4.35;1.40;;;;;;;;;;5034193;28;20045;-45
2021/05/02 13:03:57;;;;;;;9.88;1.80;;;;;;;;;;5037707;28;20102;-43
2021/05/02 13:06:23;;;;;;;4.75;2.45;;;;;;;;;;5032663;28;20073;-43
2021/05/02 13:08:52;;;;;;;6.93;2.20;;;;;;;;;;5034005;28;20068;-44
2021/05/02 13:11:29;;;;;;;5.68;2.60;;;;;;;;;;5033333;28;20030;-41
2021/05/02 13:14:12;;;;;;;3.72;2.17;;;;;;;;;;5033028;28;20057;-41
2021/05/02 13:16:44;;;;;;;7.00;2.58;;;;;;;;;;5027346;28;20109;-43
2021/05/02 13:19:28;;;;;;;10.35;3.45;;;;;;;;;;5029141;28;20016;-48
2021/05/02 13:21:54;;;;;;;5.05;2.40;;;;;;;;;;5029529;28;20036;-42
2021/05/02 13:24:20;;;;;;;10.30;3.72;;;;;;;;;;5030233;28;20021;-42
2021/05/02 13:26:46;;;;;;;6.50;2.40;;;;;;;;;;5030723;28;20044;-46
2021/05/02 13:29:15;;;;;;;6.30;1.75;;;;;;;;;;5030015;28;20025;-41
2021/05/02 13:31:45;;;;;;;9.20;2.30;;;;;;;;;;5032541;28;20465;-46
2021/05/02 13:34:11;;;;;;;4.82;2.22;;;;;;;;;;5029766;28;20053;-42
2021/05/02 13:36:36;;;;;;;5.60;2.58;;;;;;;;;;5031494;28;20021;-45
2021/05/02 13:39:03;;;;;;;3.75;2.58;;;;;;;;;;5026463;28;20036;-41
2021/05/02 13:41:29;;;;;;;2.67;1.77;;;;;;;;;;5028963;28;20040;-43
2021/05/02 13:44:05;;;;;;;9.98;1.77;;;;;;;;;;5033043;28;20112;-48
2021/05/02 13:46:30;;;;;;;2.30;1.42;;;;;;;;;;5026324;28;20017;-46
2021/05/02 13:48:55;;;;;;;5.85;2.50;;;;;;;;;;5027424;28;20018;-42
2021/05/02 13:51:21;;;;;;;12.93;3.17;;;;;;;;;;5032007;28;20473;-45
2021/05/02 13:53:53;;;;;;;9.23;2.13;;;;;;;;;;5033998;28;20068;-41
2021/05/02 13:56:18;;;;;;;9.07;3.13;;;;;;;;;;5035043;28;20041;-49
2021/05/02 13:58:44;;;;;;;4.70;1.90;;;;;;;;;;5037119;28;20071;-46
2021/05/02 14:01:10;;;;;;;3.17;1.73;;;;;;;;;;5032252;28;20107;-43
2021/05/02 14:03:35;;;;;;;9.68;2.33;;;;;;;;;;5029543;28;20474;-48
2021/05/02 14:06:00;;;;;;;9.20;3.15;;;;;;;;;;5032528;28;20084;-41
2021/05/02 14:08:26;;;;;;;9.07;3.40;;;;;;;;;;5030828;28;20049;-44
2021/05/02 14:10:51;;;;;;;5.15;2.15;;;;;;;;;;5033739;28;20060;-46
2021/05/02 14:13:16;;;;;;;4.43;1.95;;;;;;;;;;5026752;28;20392;-41
2021/05/02 14:15:41;;;;;;;6.13;2.55;;;;;;;;;;5035453;28;20083;-47
2021/05/02 14:18:07;;;;;;;9.25;3.30;;;;;;;;;;5032347;28;20029;-46
2021/05/02 14:20:32;;;;;;;3.53;1.40;;;;;;;;;;5028397;28;20104;-44
2021/05/02 14:22:57;;;;;;;14.30;4.07;;;;;;;;;;5029343;28;20150;-42
2021/05/02 14:25:23;;;;;;;17.00;3.17;;;;;;;;;;5026455;28;20013;-42
2021/05/02 14:27:48;;;;;;;12.73;4.28;;;;;;;;;;5030738;28;20501;-44
2021/05/02 14:30:13;;;;;;;12.85;4.53;;;;;;;;;;5023823;28;20099;-45
2021/05/02 14:32:39;;;;;;;11.27;2.90;;;;;;;;;;5029500;28;20195;-54
2021/05/02 14:35:04;;;;;;;8.43;3.80;;;;;;;;;;5027915;28;20499;-43
2021/05/02 14:37:30;;;;;;;8.02;2.25;;;;;;;;;;5026277;28;20041;-45
2021/05/02 14:39:55;;;;;;;7.55;3.33;;;;;;;;;;5030970;28;20103;-45
2021/05/02 14:42:22;;;;;;;18.98;4.22;;;;;;;;;;5025509;28;20029;-46
2021/05/02 14:44:48;;;;;;;6.38;2.00;;;;;;;;;;5027736;28;20026;-43
2021/05/02 14:47:13;;;;;;;8.98;2.50;;;;;;;;;;5030937;28;20477;-45
2021/05/02 14:49:38;;;;;;;7.05;2.22;;;;;;;;;;5030102;28;20021;-44
2021/05/02 14:52:04;;;;;;;5.82;1.98;;;;;;;;;;5032053;28;20496;-44
2021/05/02 14:54:29;;;;;;;5.28;2.00;;;;;;;;;;5031993;28;20032;-46
2021/05/02 14:56:54;;;;;;;7.13;2.13;;;;;;;;;;5025953;28;20034;-43
2021/05/02 14:59:20;;;;;;;9.98;3.03;;;;;;;;;;5032390;28;20029;-44